createdAt,value
2023-01-31T18:15:23.124Z,101491.34
2023-01-31T18:20:28.561Z,101499.34
2023-01-31T18:25:33.823Z,101487.16
2023-01-31T18:30:41.869Z,101483.19
2023-01-31T18:35:47.047Z,101476.47
2023-01-31T18:40:52.702Z,101477.34
2023-01-31T18:46:00.484Z,101485.09
2023-01-31T18:51:09.254Z,101476.56
2023-01-31T18:56:17.234Z,101480.00
2023-01-31T19:01:26.342Z,101474.03
2023-01-31T19:06:35.307Z,101480.84
2023-01-31T19:11:40.472Z,101488.53
2023-01-31T19:16:49.389Z,101497.94
2023-01-31T19:21:55.007Z,101497.06
2023-01-31T19:27:00.176Z,101488.50
2023-01-31T19:32:08.366Z,101486.81
2023-01-31T19:37:13.533Z,101494.47
2023-01-31T19:42:18.657Z,101491.88
2023-01-31T19:47:26.545Z,101488.47
2023-01-31T19:52:33.565Z,101485.84
2023-01-31T19:57:38.768Z,101489.06
2023-01-31T20:02:46.790Z,101491.38
2023-01-31T20:07:53.961Z,101496.25
2023-01-31T20:13:02.484Z,101511.47
2023-01-31T20:18:10.327Z,101500.44
2023-01-31T20:23:18.771Z,101511.66
2023-01-31T20:28:23.994Z,101510.06
2023-01-31T20:33:31.646Z,101513.59
2023-01-31T20:38:37.020Z,101513.72
2023-01-31T20:43:42.180Z,101522.34
2023-01-31T20:48:50.042Z,101510.53
2023-01-31T20:53:55.125Z,101504.59
2023-01-31T20:59:00.182Z,101513.88
2023-01-31T21:04:08.313Z,101524.03
2023-01-31T21:09:13.869Z,101515.34
2023-01-31T21:14:19.014Z,101517.06
2023-01-31T21:19:26.838Z,101507.72
2023-01-31T21:24:32.059Z,101504.34
2023-01-31T21:29:37.496Z,101491.63
2023-01-31T21:34:45.280Z,101490.00
2023-01-31T21:39:50.741Z,101484.06
2023-01-31T21:44:55.940Z,101481.50
2023-01-31T21:50:04.473Z,101463.59
2023-01-31T21:55:10.589Z,101468.66
2023-01-31T22:00:16.818Z,101471.19
2023-01-31T22:05:24.632Z,101476.28
2023-01-31T22:10:29.889Z,101463.44
2023-01-31T22:15:35.574Z,101460.84
2023-01-31T22:20:43.334Z,101457.41
